createdAt,value
2022-10-12T00:02:21.708Z,11.90
2022-10-12T00:05:09.286Z,11.80
2022-10-12T00:07:57.119Z,11.70
2022-10-12T00:10:44.633Z,11.70
2022-10-12T00:13:31.530Z,11.80
2022-10-12T00:16:20.187Z,11.80
2022-10-12T00:19:06.523Z,11.80
2022-10-12T00:21:52.824Z,11.80
2022-10-12T00:24:42.950Z,11.90
2022-10-12T00:27:29.563Z,11.70
2022-10-12T00:30:16.091Z,11.70
2022-10-12T00:33:02.713Z,11.70
2022-10-12T00:35:49.117Z,11.70
2022-10-12T00:38:35.445Z,11.90
2022-10-12T00:41:25.828Z,12.00
2022-10-12T00:44:37.992Z,12.10
2022-10-12T00:47:28.940Z,12.20
2022-10-12T00:50:20.630Z,12.30
2022-10-12T00:53:12.598Z,12.30
2022-10-12T00:56:02.379Z,12.30
2022-10-12T00:58:51.161Z,12.20
2022-10-12T01:01:39.014Z,12.30
2022-10-12T01:04:26.489Z,12.20
2022-10-12T01:07:13.319Z,12.20
2022-10-12T01:09:59.693Z,12.00
2022-10-12T01:12:48.353Z,11.90
2022-10-12T01:15:40.485Z,11.80
2022-10-12T01:18:33.154Z,11.90
2022-10-12T01:21:20.917Z,11.80
2022-10-12T01:24:35.706Z,11.60
2022-10-12T01:27:40.499Z,11.70
2022-10-12T01:30:34.185Z,11.70
2022-10-12T01:33:29.375Z,11.90
2022-10-12T01:36:20.393Z,12.00
2022-10-12T01:39:15.766Z,12.10
2022-10-12T01:42:07.821Z,12.10
2022-10-12T01:45:02.818Z,12.00
2022-10-12T01:47:53.488Z,11.90
2022-10-12T01:50:50.066Z,12.00
2022-10-12T01:53:42.851Z,12.10
2022-10-12T01:56:33.164Z,12.10
2022-10-12T01:59:22.960Z,12.00
2022-10-12T02:02:18.039Z,12.00
2022-10-12T02:05:12.535Z,11.80
2022-10-12T02:08:06.900Z,11.80
2022-10-12T02:10:58.480Z,11.80
2022-10-12T02:13:48.125Z,11.90
2022-10-12T02:16:38.797Z,11.90
2022-10-12T02:19:28.194Z,11.90
2022-10-12T02:22:17.117Z,11.90
2022-10-12T02:25:07.635Z,11.90
2022-10-12T02:27:59.683Z,12.00
2022-10-12T02:30:50.490Z,11.60
2022-10-12T02:33:42.383Z,11.60
2022-10-12T02:36:36.027Z,11.50
2022-10-12T02:39:29.392Z,11.40
2022-10-12T02:42:21.638Z,11.40
2022-10-12T02:45:10.905Z,11.60
2022-10-12T02:48:00.082Z,11.60
2022-10-12T02:50:49.197Z,11.50
2022-10-12T02:53:36.106Z,11.50
2022-10-12T02:56:24.717Z,11.50
2022-10-12T02:59:10.948Z,11.60
2022-10-12T03:01:57.387Z,11.70
2022-10-12T03:04:43.993Z,11.80
2022-10-12T03:07:30.533Z,11.70
2022-10-12T03:10:17.229Z,11.60
2022-10-12T03:13:05.240Z,11.50
2022-10-12T03:15:51.910Z,11.50
2022-10-12T03:18:39.234Z,11.60
2022-10-12T03:21:25.873Z,11.60
2022-10-12T03:24:12.267Z,11.60
2022-10-12T03:26:59.107Z,11.70
2022-10-12T03:29:47.162Z,11.80
2022-10-12T03:32:33.460Z,11.80
2022-10-12T03:35:20.069Z,11.80
2022-10-12T03:38:06.554Z,11.70
2022-10-12T03:40:52.933Z,11.60
2022-10-12T03:43:40.056Z,11.30
2022-10-12T03:46:28.385Z,11.30
2022-10-12T03:49:14.992Z,11.40
2022-10-12T03:52:01.504Z,11.30
2022-10-12T03:54:47.897Z,11.10
2022-10-12T03:57:34.585Z,11.00
2022-10-12T04:00:23.912Z,11.00
2022-10-12T04:03:11.820Z,11.10
2022-10-12T04:05:59.658Z,11.10
2022-10-12T04:08:50.628Z,11.00
2022-10-12T04:11:37.602Z,10.90
2022-10-12T04:14:24.066Z,11.00
2022-10-12T04:17:10.954Z,11.00
2022-10-12T04:19:58.636Z,11.00
2022-10-12T04:22:44.990Z,11.00
2022-10-12T04:25:31.673Z,11.00
2022-10-12T04:28:18.240Z,11.00
2022-10-12T04:31:05.147Z,11.10
2022-10-12T04:33:56.713Z,11.00
2022-10-12T04:36:44.515Z,11.00
2022-10-12T04:39:31.185Z,11.10
2022-10-12T04:42:17.595Z,11.30
2022-10-12T04:45:03.999Z,11.20
2022-10-12T04:47:50.658Z,11.20
2022-10-12T04:50:37.482Z,11.40
2022-10-12T04:53:25.579Z,11.50
2022-10-12T04:56:12.258Z,11.60
2022-10-12T04:58:58.679Z,11.60
2022-10-12T05:01:45.309Z,11.40
2022-10-12T05:04:32.049Z,11.40
2022-10-12T05:07:18.764Z,11.50
2022-10-12T05:10:07.773Z,11.50
2022-10-12T05:12:54.532Z,11.60
2022-10-12T05:15:42.096Z,11.70
2022-10-12T05:18:28.490Z,11.70
2022-10-12T05:21:14.783Z,11.70
2022-10-12T05:24:01.120Z,11.70
2022-10-12T05:26:48.840Z,11.70
2022-10-12T05:29:35.359Z,11.60
2022-10-12T05:32:22.282Z,11.50
2022-10-12T05:35:09.221Z,11.50
2022-10-12T05:37:55.944Z,11.50
2022-10-12T05:40:42.326Z,11.60
2022-10-12T05:43:29.954Z,11.50
2022-10-12T05:46:16.627Z,11.50
2022-10-12T05:49:03.153Z,11.50
2022-10-12T05:51:49.572Z,11.60
2022-10-12T05:54:36.036Z,11.50
2022-10-12T05:57:22.592Z,11.60
2022-10-12T06:00:11.322Z,11.60
2022-10-12T06:02:59.527Z,11.60
2022-10-12T06:05:46.088Z,11.60
2022-10-12T06:08:32.510Z,11.60
2022-10-12T06:11:19.285Z,11.50
2022-10-12T06:14:06.007Z,11.50
2022-10-12T06:16:54.634Z,11.60
2022-10-12T06:19:41.487Z,11.60
2022-10-12T06:22:27.912Z,11.70
2022-10-12T06:25:14.264Z,11.80
2022-10-12T06:28:00.558Z,11.80
2022-10-12T06:30:47.456Z,12.00
2022-10-12T06:33:35.023Z,12.10
2022-10-12T06:36:21.917Z,12.10
2022-10-12T06:39:09.655Z,12.20
2022-10-12T06:41:56.301Z,12.20
2022-10-12T06:44:43.494Z,12.10
2022-10-12T06:47:30.051Z,12.20
2022-10-12T06:50:17.840Z,12.20
2022-10-12T06:53:04.665Z,12.20
2022-10-12T06:55:51.013Z,12.30
2022-10-12T06:58:37.655Z,12.30
2022-10-12T07:01:24.386Z,12.40
2022-10-12T07:04:11.270Z,12.40
2022-10-12T07:06:59.366Z,12.40
2022-10-12T07:09:45.763Z,12.40
2022-10-12T07:12:32.255Z,12.40
2022-10-12T07:15:18.660Z,12.70
2022-10-12T07:18:05.428Z,12.60
2022-10-12T07:20:52.165Z,12.80
2022-10-12T07:23:45.021Z,12.80
2022-10-12T07:26:32.839Z,12.80
2022-10-12T07:29:19.267Z,12.90
2022-10-12T07:32:06.686Z,12.90
2022-10-12T07:34:53.127Z,12.90
2022-10-12T07:37:39.795Z,12.90
2022-10-12T07:40:27.689Z,12.80
2022-10-12T07:43:16.115Z,12.80
2022-10-12T07:46:04.402Z,12.90
2022-10-12T07:48:50.924Z,12.90
2022-10-12T07:51:38.505Z,13.10
2022-10-12T07:54:29.213Z,13.10
2022-10-12T07:57:17.473Z,13.20
2022-10-12T08:00:04.244Z,13.20
2022-10-12T08:02:58.017Z,13.30
2022-10-12T08:05:44.313Z,13.40
2022-10-12T08:08:30.822Z,13.50
2022-10-12T08:11:18.505Z,13.50
2022-10-12T08:14:06.688Z,13.70
2022-10-12T08:16:53.101Z,13.60
2022-10-12T08:19:39.685Z,13.70
2022-10-12T08:22:25.965Z,13.70
2022-10-12T08:25:12.501Z,13.80
2022-10-12T08:27:59.452Z,13.90
2022-10-12T08:30:47.256Z,13.90
2022-10-12T08:33:33.767Z,13.80
2022-10-12T08:36:20.324Z,13.70
2022-10-12T08:39:08.639Z,13.90
2022-10-12T08:42:07.243Z,14.10
2022-10-12T08:45:10.056Z,14.20
2022-10-12T08:48:01.576Z,14.40
2022-10-12T08:50:51.408Z,14.70
2022-10-12T08:53:48.546Z,15.00
2022-10-12T08:56:35.831Z,15.10
2022-10-12T08:59:22.313Z,15.30
2022-10-12T09:02:31.111Z,14.90
2022-10-12T09:05:28.589Z,15.10
2022-10-12T09:08:28.446Z,15.30
2022-10-12T09:11:29.454Z,15.60
2022-10-12T09:14:20.676Z,16.10
2022-10-12T09:17:22.234Z,16.40
2022-10-12T09:20:18.411Z,16.50
2022-10-12T09:23:21.025Z,16.40
2022-10-12T09:26:15.561Z,16.30
2022-10-12T09:29:04.029Z,16.20
2022-10-12T09:32:02.900Z,16.20
2022-10-12T09:34:50.166Z,16.20
2022-10-12T09:37:37.491Z,16.50
2022-10-12T09:40:27.551Z,17.00
2022-10-12T09:43:15.977Z,17.80
2022-10-12T09:46:06.674Z,18.50
2022-10-12T09:49:00.340Z,18.80
2022-10-12T09:51:47.685Z,19.30
2022-10-12T09:54:34.931Z,19.50
2022-10-12T09:57:26.011Z,19.30
2022-10-12T10:00:26.493Z,19.50
2022-10-12T10:03:29.255Z,20.00
2022-10-12T10:06:24.953Z,20.10
2022-10-12T10:09:29.842Z,20.00
2022-10-12T10:12:24.997Z,20.20
2022-10-12T10:15:25.140Z,20.50
2022-10-12T10:18:23.089Z,20.70
2022-10-12T10:21:12.147Z,20.90
2022-10-12T10:23:59.984Z,21.00
2022-10-12T10:26:54.853Z,21.00
2022-10-12T10:29:45.360Z,21.30
2022-10-12T10:32:31.626Z,21.10
2022-10-12T10:35:23.312Z,20.60
2022-10-12T10:38:16.424Z,20.60
2022-10-12T10:41:07.688Z,20.60
2022-10-12T10:43:55.012Z,20.90
2022-10-12T10:46:46.335Z,21.10
2022-10-12T10:49:39.383Z,21.40
2022-10-12T10:52:28.701Z,21.40
2022-10-12T10:55:21.960Z,21.20
2022-10-12T10:58:19.153Z,21.50
2022-10-12T11:01:16.572Z,21.50
2022-10-12T11:04:10.142Z,21.60
2022-10-12T11:07:01.708Z,21.40
2022-10-12T11:09:54.324Z,21.60
2022-10-12T11:12:45.886Z,21.70
2022-10-12T11:15:38.561Z,21.40
2022-10-12T11:18:31.681Z,21.50
2022-10-12T11:21:23.010Z,21.60
2022-10-12T11:24:15.696Z,21.60
2022-10-12T11:27:07.427Z,21.70
2022-10-12T11:30:08.847Z,22.00
2022-10-12T11:33:01.558Z,22.30
2022-10-12T11:35:48.625Z,22.50
2022-10-12T11:38:41.536Z,22.50
2022-10-12T11:41:36.216Z,22.50
2022-10-12T11:44:30.684Z,22.40
2022-10-12T11:47:23.508Z,22.40
2022-10-12T11:50:25.085Z,21.80
2022-10-12T11:53:20.477Z,20.40
2022-10-12T11:56:17.618Z,19.80
2022-10-12T11:59:12.387Z,19.40
2022-10-12T12:02:06.563Z,19.30
2022-10-12T12:04:54.472Z,19.10
2022-10-12T12:07:53.816Z,19.00
2022-10-12T12:11:03.235Z,19.00
2022-10-12T12:13:51.372Z,19.70
2022-10-12T12:16:44.599Z,20.50
2022-10-12T12:19:41.611Z,21.00
2022-10-12T12:22:50.185Z,21.40
2022-10-12T12:25:37.841Z,21.40
2022-10-12T12:28:25.828Z,20.90
2022-10-12T12:31:17.179Z,20.40
2022-10-12T12:34:06.556Z,20.40
2022-10-12T12:36:53.681Z,20.20
2022-10-12T12:39:44.227Z,20.00
2022-10-12T12:42:34.382Z,19.70
2022-10-12T12:45:54.593Z,19.60
2022-10-12T12:49:07.273Z,19.60
2022-10-12T12:51:57.816Z,19.40
2022-10-12T12:55:00.533Z,19.30
2022-10-12T12:58:11.091Z,19.30
2022-10-12T13:01:15.810Z,19.30
2022-10-12T13:04:32.301Z,19.30
2022-10-12T13:07:47.072Z,19.20
2022-10-12T13:10:43.586Z,19.20
2022-10-12T13:13:46.840Z,19.30
2022-10-12T13:17:31.224Z,19.70
2022-10-12T13:20:00.358Z,19.30
2022-10-12T13:22:48.927Z,19.10
2022-10-12T13:25:41.203Z,19.00
2022-10-12T13:28:31.308Z,19.10
2022-10-12T13:31:22.427Z,19.30
2022-10-12T13:34:18.876Z,19.30
2022-10-12T13:37:13.349Z,19.40
2022-10-12T13:40:00.113Z,19.10
2022-10-12T13:42:46.453Z,19.10
2022-10-12T13:45:32.764Z,19.20
2022-10-12T13:48:39.814Z,19.20
2022-10-12T13:51:31.857Z,19.00
2022-10-12T13:54:23.585Z,19.10
2022-10-12T13:57:20.076Z,18.90
2022-10-12T14:00:18.614Z,19.00
2022-10-12T14:03:07.194Z,19.10
2022-10-12T14:05:56.363Z,19.30
2022-10-12T14:08:44.215Z,19.30
2022-10-12T14:11:32.264Z,19.50
2022-10-12T14:14:29.542Z,19.50
2022-10-12T14:17:17.305Z,19.50
2022-10-12T14:20:18.008Z,19.20
2022-10-12T14:23:06.252Z,19.10
2022-10-12T14:25:55.261Z,19.10
2022-10-12T14:28:43.271Z,19.00
2022-10-12T14:31:52.161Z,19.00
2022-10-12T14:34:45.339Z,18.70
2022-10-12T14:37:32.074Z,18.60
2022-10-12T14:40:35.383Z,18.60
2022-10-12T14:43:24.487Z,18.70
2022-10-12T14:46:15.033Z,18.70
2022-10-12T14:49:01.761Z,18.70
2022-10-12T14:51:49.620Z,18.80
2022-10-12T14:54:36.235Z,18.90
2022-10-12T14:57:25.895Z,18.90
2022-10-12T15:00:15.555Z,19.00
2022-10-12T15:03:03.900Z,18.90
2022-10-12T15:05:50.209Z,18.90
2022-10-12T15:08:36.763Z,18.80
2022-10-12T15:11:24.230Z,18.80
2022-10-12T15:14:12.072Z,18.70
2022-10-12T15:16:58.516Z,18.70
2022-10-12T15:19:47.834Z,18.60
2022-10-12T15:22:34.491Z,18.50
2022-10-12T15:25:25.739Z,18.50
2022-10-12T15:28:12.364Z,18.50
2022-10-12T15:31:17.016Z,18.40
2022-10-12T15:34:05.093Z,18.50
2022-10-12T15:36:55.942Z,18.50
2022-10-12T15:39:42.813Z,18.50
2022-10-12T15:42:29.321Z,18.50
2022-10-12T15:45:22.298Z,18.50
2022-10-12T15:48:12.063Z,18.50
2022-10-12T15:50:58.772Z,18.50
2022-10-12T15:53:54.007Z,18.50
2022-10-12T15:56:41.305Z,18.40
2022-10-12T15:59:30.901Z,18.40
2022-10-12T16:02:17.685Z,18.40
2022-10-12T16:05:04.834Z,18.30
2022-10-12T16:07:52.091Z,18.20
2022-10-12T16:10:42.101Z,18.20
2022-10-12T16:13:28.552Z,18.10
2022-10-12T16:16:15.404Z,18.00
2022-10-12T16:19:01.807Z,18.00
2022-10-12T16:21:48.093Z,18.10
2022-10-12T16:24:36.106Z,18.00
2022-10-12T16:27:23.946Z,17.90
2022-10-12T16:30:11.988Z,17.90
2022-10-12T16:32:58.258Z,17.80
2022-10-12T16:35:45.161Z,17.70
2022-10-12T16:38:31.729Z,17.60
2022-10-12T16:41:18.647Z,17.50
2022-10-12T16:44:07.452Z,17.50
2022-10-12T16:46:53.868Z,17.60
2022-10-12T16:49:40.441Z,17.50
2022-10-12T16:52:27.257Z,17.40
2022-10-12T16:55:14.204Z,17.30
2022-10-12T16:58:00.565Z,17.30
2022-10-12T17:00:48.326Z,17.20
2022-10-12T17:03:34.620Z,17.10
2022-10-12T17:06:20.922Z,17.00
2022-10-12T17:09:07.303Z,17.00
2022-10-12T17:11:53.817Z,17.10
2022-10-12T17:14:40.425Z,17.00
2022-10-12T17:17:28.228Z,17.00
2022-10-12T17:20:14.674Z,16.70
2022-10-12T17:23:01.116Z,16.60
2022-10-12T17:25:49.094Z,16.30
2022-10-12T17:28:38.110Z,16.20
2022-10-12T17:31:25.873Z,16.00
2022-10-12T17:34:19.001Z,15.80
2022-10-12T17:37:06.601Z,15.70
2022-10-12T17:39:53.056Z,15.60
2022-10-12T17:42:39.883Z,15.50
2022-10-12T17:45:26.128Z,15.60
2022-10-12T17:48:14.933Z,15.40
2022-10-12T17:51:06.029Z,15.40
2022-10-12T17:53:53.527Z,15.30
2022-10-12T17:56:40.044Z,15.20
2022-10-12T17:59:26.884Z,15.00
2022-10-12T18:02:13.341Z,14.80
2022-10-12T18:04:59.827Z,14.80
2022-10-12T18:07:47.612Z,14.70
2022-10-12T18:10:34.120Z,14.60
2022-10-12T18:13:20.539Z,14.50
2022-10-12T18:16:11.076Z,14.40
2022-10-12T18:19:00.998Z,14.40
2022-10-12T18:21:47.554Z,14.40
2022-10-12T18:24:35.337Z,14.20
2022-10-12T18:27:21.881Z,14.20
2022-10-12T18:30:09.713Z,14.10
2022-10-12T18:32:56.189Z,14.10
2022-10-12T18:35:42.597Z,14.10
2022-10-12T18:38:28.957Z,14.20
2022-10-12T18:41:19.155Z,14.20
2022-10-12T18:44:05.768Z,14.30
2022-10-12T18:46:52.145Z,14.30
2022-10-12T18:49:38.546Z,14.30
2022-10-12T18:52:24.979Z,14.20
2022-10-12T18:55:11.772Z,13.90
2022-10-12T18:57:59.821Z,13.90
2022-10-12T19:00:46.643Z,13.80
2022-10-12T19:03:33.364Z,13.80
2022-10-12T19:06:22.598Z,13.90
2022-10-12T19:09:10.256Z,14.00
2022-10-12T19:11:57.016Z,14.00
2022-10-12T19:14:44.721Z,14.00
2022-10-12T19:17:32.260Z,14.10
2022-10-12T19:20:18.809Z,14.10
2022-10-12T19:23:05.576Z,14.10
2022-10-12T19:25:52.104Z,14.10
2022-10-12T19:28:38.558Z,14.10
2022-10-12T19:31:27.608Z,14.10
2022-10-12T19:34:15.712Z,14.10
2022-10-12T19:37:02.507Z,14.10
2022-10-12T19:39:49.053Z,14.00
2022-10-12T19:42:35.308Z,13.90
2022-10-12T19:45:21.916Z,13.90
2022-10-12T19:48:10.715Z,13.70
2022-10-12T19:51:01.627Z,13.80
2022-10-12T19:53:48.154Z,13.80
2022-10-12T19:56:34.816Z,13.70
2022-10-12T19:59:21.297Z,13.80
2022-10-12T20:02:09.117Z,13.80
2022-10-12T20:04:57.048Z,13.60
2022-10-12T20:07:43.404Z,13.80
2022-10-12T20:10:29.781Z,13.80
2022-10-12T20:13:16.460Z,13.90
2022-10-12T20:16:03.493Z,13.80
2022-10-12T20:18:51.221Z,13.70
2022-10-12T20:21:38.937Z,13.50
2022-10-12T20:24:25.559Z,13.30
2022-10-12T20:27:12.099Z,13.30
2022-10-12T20:29:58.338Z,13.30
2022-10-12T20:32:44.692Z,13.40
2022-10-12T20:35:31.311Z,13.40
2022-10-12T20:38:19.764Z,13.50
2022-10-12T20:41:08.112Z,13.50
2022-10-12T20:43:56.147Z,13.50
2022-10-12T20:46:45.515Z,13.40
2022-10-12T20:49:32.080Z,13.30
2022-10-12T20:52:19.060Z,13.30
2022-10-12T20:55:07.885Z,13.10
2022-10-12T20:57:54.589Z,13.00
2022-10-12T21:00:41.007Z,13.10
2022-10-12T21:03:27.911Z,13.10
2022-10-12T21:06:17.204Z,13.10
2022-10-12T21:09:03.585Z,13.10
2022-10-12T21:11:51.304Z,13.10
2022-10-12T21:14:37.816Z,13.00
2022-10-12T21:17:24.251Z,12.90
2022-10-12T21:20:11.019Z,12.80
2022-10-12T21:22:57.476Z,12.90
2022-10-12T21:25:43.700Z,13.00
2022-10-12T21:28:31.547Z,13.00
2022-10-12T21:31:19.213Z,12.90
2022-10-12T21:34:08.099Z,12.90
2022-10-12T21:36:54.618Z,12.80
2022-10-12T21:39:41.021Z,12.80
2022-10-12T21:42:28.910Z,12.70
2022-10-12T21:45:19.598Z,12.80
2022-10-12T21:48:06.641Z,12.90
2022-10-12T21:50:56.787Z,12.80
2022-10-12T21:53:43.263Z,12.90
2022-10-12T21:56:31.211Z,12.70
2022-10-12T21:59:17.775Z,12.50
2022-10-12T22:02:05.535Z,12.20
2022-10-12T22:04:51.994Z,11.90
2022-10-12T22:07:41.528Z,12.00
2022-10-12T22:10:28.064Z,11.80
2022-10-12T22:13:14.631Z,11.80
2022-10-12T22:16:09.698Z,11.90
2022-10-12T22:18:59.406Z,12.00
2022-10-12T22:21:52.736Z,12.20
2022-10-12T22:24:39.531Z,12.30
2022-10-12T22:27:25.792Z,12.30
2022-10-12T22:30:13.080Z,12.20
2022-10-12T22:32:59.499Z,12.20
2022-10-12T22:35:54.977Z,12.10
2022-10-12T22:38:41.902Z,12.10
2022-10-12T22:41:30.357Z,12.20
2022-10-12T22:44:16.564Z,12.20
2022-10-12T22:47:03.299Z,12.20
2022-10-12T22:49:49.665Z,12.20
2022-10-12T22:52:37.231Z,12.20
2022-10-12T22:55:23.695Z,12.10
2022-10-12T22:58:10.708Z,12.00
2022-10-12T23:01:02.989Z,11.90
2022-10-12T23:03:50.888Z,12.00
2022-10-12T23:06:37.481Z,12.10
2022-10-12T23:09:25.401Z,11.70
2022-10-12T23:12:11.752Z,11.50
2022-10-12T23:14:58.473Z,11.30
2022-10-12T23:17:44.821Z,11.30
2022-10-12T23:20:31.366Z,11.50
2022-10-12T23:23:21.649Z,11.50
2022-10-12T23:26:11.543Z,11.50
2022-10-12T23:28:58.430Z,11.60
2022-10-12T23:31:44.749Z,11.70
2022-10-12T23:34:31.456Z,11.70
2022-10-12T23:37:17.864Z,11.70
2022-10-12T23:40:04.233Z,11.80
2022-10-12T23:42:51.940Z,11.80
2022-10-12T23:45:38.303Z,11.70
2022-10-12T23:48:27.237Z,11.60
2022-10-12T23:51:14.145Z,11.50
2022-10-12T23:54:00.808Z,11.40
2022-10-12T23:56:47.500Z,11.00
2022-10-12T23:59:35.245Z,10.70
